createdAt,value
2023-05-19T00:01:13.657Z,76.04
2023-05-19T00:03:52.537Z,76.16
2023-05-19T00:06:26.940Z,76.00
2023-05-19T00:08:58.764Z,76.26
2023-05-19T00:11:29.676Z,77.05
2023-05-19T00:13:58.481Z,77.23
2023-05-19T00:16:34.550Z,77.80
2023-05-19T00:19:03.453Z,77.54
2023-05-19T00:21:31.404Z,77.89
2023-05-19T00:23:58.544Z,77.27
2023-05-19T00:26:27.109Z,77.30
2023-05-19T00:28:54.118Z,77.87
2023-05-19T00:31:20.740Z,77.78
2023-05-19T00:33:52.116Z,77.17
2023-05-19T00:36:18.765Z,77.48
2023-05-19T00:38:45.265Z,77.11
2023-05-19T00:41:12.140Z,76.86
2023-05-19T00:43:38.686Z,76.46
2023-05-19T00:46:05.436Z,76.98
2023-05-19T00:48:36.803Z,76.49
2023-05-19T00:51:06.495Z,76.60
2023-05-19T00:53:37.644Z,76.17
2023-05-19T00:56:04.499Z,75.86
2023-05-19T00:58:33.507Z,76.22
2023-05-19T01:01:04.248Z,75.80
2023-05-19T01:03:32.861Z,76.73
2023-05-19T01:06:04.969Z,76.21
2023-05-19T01:08:38.630Z,76.18
2023-05-19T01:11:06.929Z,75.83
2023-05-19T01:13:35.350Z,75.94
2023-05-19T01:16:12.580Z,75.77
2023-05-19T01:18:46.905Z,75.71
2023-05-19T01:21:13.989Z,75.55
2023-05-19T01:24:12.246Z,75.89
2023-05-19T01:27:00.134Z,76.42
2023-05-19T01:29:42.748Z,77.30
2023-05-19T01:32:10.686Z,76.43
2023-05-19T01:34:43.023Z,76.83
2023-05-19T01:37:10.019Z,76.94
2023-05-19T01:39:37.460Z,77.16
2023-05-19T01:42:07.798Z,77.02
2023-05-19T01:44:36.702Z,76.78
2023-05-19T01:47:07.309Z,77.49
2023-05-19T01:49:33.960Z,78.10
2023-05-19T01:52:00.579Z,78.52
2023-05-19T01:54:27.065Z,78.89
2023-05-19T01:57:23.401Z,78.93
2023-05-19T02:00:20.522Z,78.79
2023-05-19T02:03:12.708Z,79.29
2023-05-19T02:06:03.336Z,79.09
2023-05-19T02:09:11.229Z,80.23
2023-05-19T02:11:42.287Z,80.01
2023-05-19T02:14:29.757Z,79.94
2023-05-19T02:16:58.003Z,79.31
2023-05-19T02:19:27.120Z,78.68
2023-05-19T02:21:54.067Z,79.17
2023-05-19T02:24:22.782Z,80.05
2023-05-19T02:26:50.373Z,81.04
2023-05-19T02:29:17.248Z,81.02
2023-05-19T02:31:44.147Z,81.73
2023-05-19T02:34:10.727Z,82.14
2023-05-19T02:36:41.028Z,83.07
2023-05-19T02:39:07.605Z,83.75
2023-05-19T02:41:38.428Z,83.53
2023-05-19T02:44:05.766Z,83.78
2023-05-19T02:46:32.505Z,83.92
2023-05-19T02:49:00.009Z,84.34
2023-05-19T02:51:28.930Z,84.54
2023-05-19T02:53:55.567Z,85.57
2023-05-19T02:56:22.195Z,86.10
2023-05-19T02:58:48.847Z,87.17
2023-05-19T03:01:15.774Z,87.38
2023-05-19T03:03:44.418Z,87.52
2023-05-19T03:06:12.638Z,88.26
2023-05-19T03:08:40.837Z,88.15
2023-05-19T03:11:08.995Z,88.72
2023-05-19T03:13:35.716Z,87.98
2023-05-19T03:16:04.322Z,88.10
2023-05-19T03:18:33.824Z,88.62
2023-05-19T03:21:00.994Z,88.74
2023-05-19T03:23:28.152Z,88.81
2023-05-19T03:25:56.120Z,89.65
2023-05-19T03:28:27.376Z,89.49
2023-05-19T03:30:58.625Z,89.68
2023-05-19T03:33:25.308Z,91.14
2023-05-19T03:35:53.096Z,90.10
2023-05-19T03:38:19.600Z,90.34
2023-05-19T03:40:46.326Z,89.90
2023-05-19T03:43:13.277Z,89.94
2023-05-19T03:45:40.045Z,89.93
2023-05-19T03:48:06.763Z,89.58
2023-05-19T03:50:34.131Z,89.64
2023-05-19T03:53:01.050Z,90.04
2023-05-19T03:55:30.700Z,89.62
2023-05-19T03:57:57.383Z,89.74
2023-05-19T04:00:24.213Z,89.68
2023-05-19T04:02:51.381Z,89.46
2023-05-19T04:05:18.075Z,89.58
2023-05-19T04:07:46.727Z,90.06
2023-05-19T04:10:13.897Z,90.27
2023-05-19T04:12:40.734Z,89.65
2023-05-19T04:15:07.983Z,90.19
2023-05-19T04:17:34.604Z,89.32
2023-05-19T04:20:01.472Z,89.52
2023-05-19T04:22:34.502Z,89.46
2023-05-19T04:25:01.799Z,89.52
2023-05-19T04:27:30.009Z,89.66
2023-05-19T04:29:56.597Z,89.97
2023-05-19T04:32:23.373Z,89.37
2023-05-19T04:34:50.222Z,89.26
2023-05-19T04:37:16.816Z,88.10
2023-05-19T04:39:45.239Z,87.37
2023-05-19T04:42:12.068Z,87.30
2023-05-19T04:44:40.261Z,87.43
2023-05-19T04:47:10.434Z,87.16
2023-05-19T04:49:39.934Z,87.45
2023-05-19T04:52:07.998Z,87.47
2023-05-19T04:54:35.251Z,86.81
2023-05-19T04:57:05.862Z,86.39
2023-05-19T04:59:32.613Z,86.54
2023-05-19T05:01:59.202Z,85.75
2023-05-19T05:04:26.033Z,85.71
2023-05-19T05:06:52.759Z,85.56
2023-05-19T05:09:20.051Z,85.44
2023-05-19T05:11:47.033Z,84.63
2023-05-19T05:14:13.849Z,84.72
2023-05-19T05:16:40.908Z,84.85
2023-05-19T05:19:10.100Z,84.48
2023-05-19T05:21:37.075Z,85.13
2023-05-19T05:24:06.365Z,84.44
2023-05-19T05:26:34.532Z,84.13
2023-05-19T05:29:01.663Z,81.84
2023-05-19T05:31:28.233Z,81.15
2023-05-19T05:33:54.788Z,79.17
2023-05-19T05:36:21.432Z,77.76
2023-05-19T05:38:48.119Z,76.54
2023-05-19T05:41:16.983Z,74.29
2023-05-19T05:43:43.583Z,72.99
2023-05-19T05:46:10.243Z,72.14
2023-05-19T05:48:37.182Z,68.86
2023-05-19T05:51:04.185Z,69.05
2023-05-19T05:53:36.013Z,65.05
2023-05-19T05:56:02.759Z,66.64
2023-05-19T05:58:29.304Z,65.34
2023-05-19T06:00:58.089Z,64.59
2023-05-19T06:03:24.782Z,65.13
2023-05-19T06:05:51.790Z,62.30
2023-05-19T06:08:18.488Z,62.70
2023-05-19T06:10:47.235Z,61.69
2023-05-19T06:13:16.303Z,59.85
2023-05-19T06:15:42.878Z,57.60
2023-05-19T06:18:13.044Z,56.55
2023-05-19T06:20:39.580Z,56.00
2023-05-19T06:23:06.106Z,57.52
2023-05-19T06:25:39.269Z,56.54
2023-05-19T06:28:06.106Z,57.83
2023-05-19T06:30:33.072Z,62.17
2023-05-19T06:32:59.870Z,58.19
2023-05-19T06:35:26.569Z,61.84
2023-05-19T06:37:56.358Z,60.54
2023-05-19T06:40:23.254Z,60.43
2023-05-19T06:42:49.839Z,59.91
2023-05-19T06:45:16.686Z,59.36
2023-05-19T06:47:44.544Z,58.43
2023-05-19T06:50:11.199Z,58.16
2023-05-19T06:52:41.497Z,58.26
2023-05-19T06:55:08.303Z,58.34
2023-05-19T06:57:34.974Z,58.43
2023-05-19T07:00:01.651Z,58.98
2023-05-19T07:02:28.379Z,56.95
2023-05-19T07:04:55.026Z,57.33
2023-05-19T07:07:21.603Z,54.86
2023-05-19T07:09:48.281Z,55.43
2023-05-19T07:12:14.772Z,54.55
2023-05-19T07:14:41.328Z,54.25
2023-05-19T07:17:07.860Z,56.83
2023-05-19T07:19:34.359Z,55.59
2023-05-19T07:22:01.009Z,56.95
2023-05-19T07:24:27.668Z,54.23
2023-05-19T07:26:56.473Z,54.29
2023-05-19T07:29:23.254Z,52.26
2023-05-19T07:31:54.257Z,53.24
2023-05-19T07:34:21.963Z,55.61
2023-05-19T07:36:48.496Z,54.54
2023-05-19T07:39:15.056Z,56.15
2023-05-19T07:41:44.204Z,54.12
2023-05-19T07:44:10.925Z,54.24
2023-05-19T07:46:37.965Z,54.00
2023-05-19T07:49:04.664Z,54.28
2023-05-19T07:51:31.827Z,54.27
2023-05-19T07:54:02.305Z,55.66
2023-05-19T07:56:29.748Z,53.51
2023-05-19T07:58:56.266Z,55.69
2023-05-19T08:01:23.085Z,55.32
2023-05-19T08:03:49.787Z,53.88
2023-05-19T08:06:16.531Z,54.26
2023-05-19T08:08:43.159Z,54.49
2023-05-19T08:11:12.049Z,53.50
2023-05-19T08:13:38.599Z,54.82
2023-05-19T08:16:05.533Z,54.50
2023-05-19T08:21:22.563Z,55.36
2023-05-19T08:23:52.411Z,53.72
2023-05-19T08:26:19.137Z,55.12
2023-05-19T08:28:46.028Z,54.40
2023-05-19T08:31:12.620Z,53.82
2023-05-19T08:33:39.297Z,54.51
2023-05-19T08:36:06.681Z,54.59
2023-05-19T08:38:33.428Z,51.86
2023-05-19T08:41:00.150Z,54.07
2023-05-19T08:43:26.766Z,53.29
2023-05-19T08:45:54.199Z,52.77
2023-05-19T08:48:23.129Z,54.83
2023-05-19T08:51:01.369Z,55.06
2023-05-19T08:53:36.742Z,54.73
2023-05-19T08:56:13.325Z,53.07
2023-05-19T08:58:42.562Z,51.57
2023-05-19T09:01:10.037Z,52.06
2023-05-19T09:03:39.263Z,52.29
2023-05-19T09:06:07.818Z,53.20
2023-05-19T09:08:35.115Z,52.40
2023-05-19T09:11:01.690Z,53.48
2023-05-19T09:13:28.373Z,54.30
2023-05-19T09:15:57.807Z,54.51
2023-05-19T09:18:28.391Z,53.88
2023-05-19T09:21:02.525Z,55.49
2023-05-19T09:23:33.535Z,55.31
2023-05-19T09:26:07.425Z,53.95
2023-05-19T09:28:36.469Z,54.97
2023-05-19T09:34:00.261Z,52.87
2023-05-19T09:36:29.653Z,53.67
2023-05-19T09:38:56.243Z,54.47
2023-05-19T09:41:23.592Z,54.38
2023-05-19T09:43:56.606Z,55.18
2023-05-19T09:46:29.031Z,55.01
2023-05-19T09:48:59.126Z,53.72
2023-05-19T09:51:25.825Z,53.46
2023-05-19T09:53:53.249Z,54.08
2023-05-19T09:56:23.747Z,52.98
2023-05-19T09:58:52.518Z,53.50
2023-05-19T10:01:19.539Z,54.11
2023-05-19T10:03:46.357Z,53.10
2023-05-19T10:06:15.617Z,53.42
2023-05-19T10:08:42.703Z,53.37
2023-05-19T10:11:11.338Z,53.15
2023-05-19T10:13:39.116Z,54.33
2023-05-19T10:16:06.742Z,52.56
2023-05-19T10:18:33.694Z,54.12
2023-05-19T10:21:00.755Z,53.68
2023-05-19T10:23:27.508Z,54.41
2023-05-19T10:25:56.976Z,53.28
2023-05-19T10:28:28.127Z,53.39
2023-05-19T10:30:58.758Z,52.54
2023-05-19T10:33:42.827Z,52.64
2023-05-19T10:36:45.881Z,52.09
2023-05-19T10:39:25.352Z,52.82
2023-05-19T10:42:20.684Z,53.12
2023-05-19T10:45:05.837Z,52.99
2023-05-19T10:47:33.710Z,51.19
2023-05-19T10:50:06.809Z,53.31
2023-05-19T10:52:37.457Z,53.17
2023-05-19T10:55:04.909Z,53.30
2023-05-19T10:57:34.716Z,53.60
2023-05-19T11:00:27.586Z,53.85
2023-05-19T11:02:57.607Z,53.27
2023-05-19T11:05:30.535Z,54.00
2023-05-19T11:08:06.229Z,54.44
2023-05-19T11:10:32.845Z,51.59
2023-05-19T11:13:00.020Z,51.90
2023-05-19T11:15:27.839Z,53.26
2023-05-19T11:17:58.652Z,52.86
2023-05-19T11:20:27.071Z,52.69
2023-05-19T11:23:06.927Z,51.24
2023-05-19T11:25:48.199Z,53.02
2023-05-19T11:28:26.363Z,53.17
2023-05-19T11:30:54.997Z,53.79
2023-05-19T11:33:27.374Z,54.42
2023-05-19T11:35:58.101Z,51.08
2023-05-19T11:38:29.661Z,52.54
2023-05-19T11:40:56.645Z,52.61
2023-05-19T11:43:26.776Z,53.45
2023-05-19T11:45:55.053Z,53.92
2023-05-19T11:48:22.548Z,55.14
2023-05-19T11:50:49.939Z,55.13
2023-05-19T11:53:16.983Z,55.50
2023-05-19T11:55:46.968Z,56.16
2023-05-19T11:58:14.462Z,56.24
2023-05-19T12:00:45.966Z,57.62
2023-05-19T12:03:13.368Z,58.08
2023-05-19T12:05:45.670Z,57.15
2023-05-19T12:08:13.082Z,56.54
2023-05-19T12:10:39.974Z,56.69
2023-05-19T12:13:09.619Z,56.54
2023-05-19T12:15:36.862Z,56.91
2023-05-19T12:18:03.952Z,56.83
2023-05-19T12:20:32.604Z,56.78
2023-05-19T12:23:00.573Z,56.84
2023-05-19T12:25:28.579Z,56.75
2023-05-19T12:28:00.777Z,56.41
2023-05-19T12:30:31.590Z,56.49
2023-05-19T12:32:58.724Z,56.36
2023-05-19T12:35:36.323Z,56.41
2023-05-19T12:38:06.920Z,56.49
2023-05-19T12:40:41.304Z,56.51
2023-05-19T12:43:09.679Z,56.65
2023-05-19T12:45:37.389Z,57.06
2023-05-19T12:48:06.583Z,56.57
2023-05-19T12:50:34.373Z,56.86
2023-05-19T12:53:01.496Z,57.05
2023-05-19T12:55:28.276Z,57.52
2023-05-19T12:58:00.644Z,58.09
2023-05-19T13:00:32.543Z,58.78
2023-05-19T13:03:07.474Z,58.96
2023-05-19T13:05:37.928Z,59.06
2023-05-19T13:08:11.649Z,59.25
2023-05-19T13:10:39.463Z,59.40
2023-05-19T13:13:08.691Z,59.44
2023-05-19T13:15:39.432Z,59.36
2023-05-19T13:18:08.808Z,58.86
2023-05-19T13:20:37.080Z,59.09
2023-05-19T13:23:04.929Z,58.78
2023-05-19T13:25:34.155Z,58.81
2023-05-19T13:28:03.828Z,59.08
2023-05-19T13:30:30.762Z,59.30
2023-05-19T13:32:59.277Z,58.79
2023-05-19T13:35:26.111Z,59.08
2023-05-19T13:37:52.675Z,59.58
2023-05-19T13:40:19.386Z,59.68
2023-05-19T13:42:46.447Z,59.06
2023-05-19T13:45:13.959Z,59.47
2023-05-19T13:47:40.714Z,59.84
2023-05-19T13:50:07.675Z,59.83
2023-05-19T13:52:34.288Z,60.09
2023-05-19T13:55:00.777Z,60.75
2023-05-19T13:57:27.545Z,60.19
2023-05-19T14:00:02.656Z,60.16
2023-05-19T14:02:30.670Z,60.44
2023-05-19T14:04:57.715Z,60.39
2023-05-19T14:07:25.604Z,60.29
2023-05-19T14:09:52.603Z,60.46
2023-05-19T14:12:20.227Z,60.89
2023-05-19T14:14:50.196Z,61.66
2023-05-19T14:17:16.794Z,61.82
2023-05-19T14:19:43.307Z,61.74
2023-05-19T14:22:09.947Z,61.78
2023-05-19T14:24:36.504Z,62.47
2023-05-19T14:27:05.041Z,62.16
2023-05-19T14:29:31.638Z,62.48
2023-05-19T14:31:58.252Z,62.08
2023-05-19T14:34:24.950Z,62.44
2023-05-19T14:36:51.655Z,62.31
2023-05-19T14:39:21.720Z,62.02
2023-05-19T14:41:51.008Z,62.61
2023-05-19T14:44:17.723Z,62.95
2023-05-19T14:46:44.257Z,63.02
2023-05-19T14:49:12.598Z,62.54
2023-05-19T14:51:39.113Z,63.05
2023-05-19T14:54:05.826Z,62.99
2023-05-19T14:56:32.402Z,63.55
2023-05-19T14:58:59.022Z,63.39
2023-05-19T15:01:25.945Z,63.63
2023-05-19T15:03:52.625Z,63.84
2023-05-19T15:06:19.282Z,64.30
2023-05-19T15:08:45.960Z,64.63
2023-05-19T15:11:12.561Z,64.04
2023-05-19T15:13:39.371Z,63.12
2023-05-19T15:16:17.454Z,63.44
2023-05-19T15:18:51.490Z,63.56
2023-05-19T15:21:18.165Z,63.83
2023-05-19T15:23:44.827Z,64.03
2023-05-19T15:26:11.424Z,63.86
2023-05-19T15:28:38.019Z,64.02
2023-05-19T15:31:04.652Z,64.89
2023-05-19T15:33:31.178Z,65.95
2023-05-19T15:35:57.674Z,66.58
2023-05-19T15:38:24.251Z,66.87
2023-05-19T15:40:51.177Z,68.04
2023-05-19T15:43:21.803Z,67.20
2023-05-19T15:45:50.148Z,67.49
2023-05-19T15:48:16.733Z,68.04
2023-05-19T15:50:43.322Z,67.47
2023-05-19T15:53:11.018Z,68.00
2023-05-19T15:55:39.977Z,67.71
2023-05-19T15:58:07.698Z,67.60
2023-05-19T16:00:34.628Z,67.64
2023-05-19T16:03:01.310Z,68.06
2023-05-19T16:05:27.963Z,68.08
2023-05-19T16:07:56.870Z,67.89
2023-05-19T16:10:23.443Z,67.50
2023-05-19T16:12:49.991Z,67.58
2023-05-19T16:15:21.128Z,67.70
2023-05-19T16:17:47.681Z,67.88
2023-05-19T16:20:16.349Z,68.19
2023-05-19T16:22:42.867Z,67.70
2023-05-19T16:25:09.710Z,68.50
2023-05-19T16:27:36.293Z,68.74
2023-05-19T16:30:03.384Z,68.58
2023-05-19T16:32:33.998Z,68.71
2023-05-19T16:35:00.716Z,68.66
2023-05-19T16:37:27.229Z,68.46
2023-05-19T16:39:53.746Z,68.48
2023-05-19T16:42:20.212Z,68.40
2023-05-19T16:44:47.044Z,68.41
2023-05-19T16:47:15.327Z,68.04
2023-05-19T16:49:41.973Z,68.76
2023-05-19T16:52:08.449Z,68.78
2023-05-19T16:54:35.316Z,68.51
2023-05-19T16:57:04.223Z,67.92
2023-05-19T16:59:30.738Z,68.75
2023-05-19T17:01:57.281Z,68.66
2023-05-19T17:04:24.150Z,69.16
2023-05-19T17:06:51.042Z,69.30
2023-05-19T17:09:18.222Z,69.36
2023-05-19T17:11:44.757Z,69.31
2023-05-19T17:14:11.645Z,69.32
2023-05-19T17:16:38.375Z,69.37
2023-05-19T17:19:04.916Z,69.48
2023-05-19T17:21:31.909Z,69.42
2023-05-19T17:23:58.477Z,69.49
2023-05-19T17:26:25.288Z,69.24
2023-05-19T17:28:51.840Z,68.58
2023-05-19T17:31:18.387Z,68.68
2023-05-19T17:33:45.124Z,68.97
2023-05-19T17:36:14.004Z,69.17
2023-05-19T17:38:42.004Z,69.38
2023-05-19T17:41:13.985Z,68.73
2023-05-19T17:43:41.364Z,68.00
2023-05-19T17:46:08.713Z,68.20
2023-05-19T17:48:40.597Z,68.51
2023-05-19T17:51:07.499Z,68.74
2023-05-19T17:53:34.616Z,68.81
2023-05-19T17:56:05.220Z,68.55
2023-05-19T17:58:32.168Z,68.99
2023-05-19T18:01:01.093Z,69.27
2023-05-19T18:03:28.153Z,69.47
2023-05-19T18:05:55.006Z,69.74
2023-05-19T18:08:21.770Z,69.44
2023-05-19T18:10:53.110Z,69.14
2023-05-19T18:13:19.859Z,69.23
2023-05-19T18:15:46.749Z,69.72
2023-05-19T18:18:13.326Z,69.87
2023-05-19T18:20:41.274Z,69.59
2023-05-19T18:23:07.839Z,69.81
2023-05-19T18:25:37.554Z,69.65
2023-05-19T18:28:04.172Z,69.77
2023-05-19T18:30:30.801Z,69.45
2023-05-19T18:32:57.577Z,69.63
2023-05-19T18:35:24.127Z,68.94
2023-05-19T18:37:58.015Z,69.20
2023-05-19T18:40:26.450Z,69.17
2023-05-19T18:42:52.981Z,69.42
2023-05-19T18:45:19.570Z,69.78
2023-05-19T18:47:46.748Z,69.45
2023-05-19T18:50:15.438Z,69.99
2023-05-19T18:52:41.967Z,69.99
2023-05-19T18:55:10.838Z,70.20
2023-05-19T18:57:37.401Z,70.21
2023-05-19T19:00:04.380Z,70.01
2023-05-19T19:02:41.877Z,70.23
2023-05-19T19:05:11.538Z,70.17
2023-05-19T19:07:43.143Z,70.40
2023-05-19T19:10:10.991Z,70.39
2023-05-19T19:12:37.657Z,70.94
2023-05-19T19:15:09.613Z,71.04
2023-05-19T19:17:40.541Z,71.16
2023-05-19T19:20:08.306Z,71.54
2023-05-19T19:22:35.005Z,71.13
2023-05-19T19:25:01.585Z,71.35
2023-05-19T19:27:31.100Z,71.82
2023-05-19T19:29:58.699Z,72.01
2023-05-19T19:32:25.816Z,71.88
2023-05-19T19:34:55.455Z,71.35
2023-05-19T19:37:21.966Z,71.76
2023-05-19T19:39:50.239Z,71.75
2023-05-19T19:42:18.998Z,72.05
2023-05-19T19:44:45.689Z,72.17
2023-05-19T19:47:12.480Z,72.19
2023-05-19T19:49:39.004Z,71.98
2023-05-19T19:52:05.851Z,72.83
2023-05-19T19:54:32.732Z,73.03
2023-05-19T19:56:59.276Z,72.54
2023-05-19T19:59:26.962Z,73.11
2023-05-19T20:01:55.856Z,73.62
2023-05-19T20:04:22.631Z,73.80
2023-05-19T20:06:49.829Z,73.49
2023-05-19T20:09:16.627Z,73.67
2023-05-19T20:11:43.627Z,73.52
2023-05-19T20:14:10.207Z,73.82
2023-05-19T20:16:36.902Z,73.59
2023-05-19T20:19:03.561Z,74.11
2023-05-19T20:21:30.596Z,73.47
2023-05-19T20:23:59.269Z,73.29
2023-05-19T20:26:25.856Z,74.14
2023-05-19T20:28:52.435Z,73.95
2023-05-19T20:31:20.757Z,73.13
2023-05-19T20:33:48.006Z,73.32
2023-05-19T20:36:14.586Z,73.97
2023-05-19T20:38:41.220Z,74.54
2023-05-19T20:41:07.921Z,74.05
2023-05-19T20:43:34.686Z,74.70
2023-05-19T20:46:07.448Z,73.67
2023-05-19T20:48:34.064Z,73.64
2023-05-19T20:51:00.753Z,73.83
2023-05-19T20:53:27.565Z,74.29
2023-05-19T20:55:54.335Z,74.54
2023-05-19T20:58:21.281Z,74.57
2023-05-19T21:00:55.342Z,74.33
2023-05-19T21:03:23.586Z,74.60
2023-05-19T21:05:50.462Z,74.45
2023-05-19T21:08:18.853Z,74.08
2023-05-19T21:10:45.462Z,74.24
2023-05-19T21:13:12.268Z,74.42
2023-05-19T21:15:38.813Z,74.27
2023-05-19T21:18:06.704Z,74.14
2023-05-19T21:20:33.795Z,74.64
2023-05-19T21:23:00.624Z,74.74
2023-05-19T21:25:27.962Z,74.80
2023-05-19T21:27:56.062Z,75.30
2023-05-19T21:30:25.309Z,75.23
2023-05-19T21:32:52.229Z,75.33
2023-05-19T21:35:18.872Z,75.22
2023-05-19T21:37:47.256Z,75.51
2023-05-19T21:40:14.000Z,75.39
2023-05-19T21:42:40.545Z,75.79
2023-05-19T21:45:07.603Z,75.98
2023-05-19T21:47:34.185Z,75.68
2023-05-19T21:50:00.989Z,75.15
2023-05-19T21:52:29.389Z,75.71
2023-05-19T21:54:56.218Z,75.81
2023-05-19T21:57:24.844Z,75.90
2023-05-19T21:59:51.408Z,75.76
2023-05-19T22:02:17.967Z,76.13
2023-05-19T22:04:44.865Z,76.16
2023-05-19T22:07:13.232Z,77.30
2023-05-19T22:09:42.182Z,78.13
2023-05-19T22:12:08.854Z,78.97
2023-05-19T22:14:37.674Z,79.00
2023-05-19T22:17:04.439Z,79.21
2023-05-19T22:19:31.107Z,79.09
2023-05-19T22:22:13.853Z,78.89
2023-05-19T22:24:41.441Z,78.35
2023-05-19T22:27:08.591Z,78.98
2023-05-19T22:29:38.679Z,78.04
2023-05-19T22:32:13.603Z,78.74
2023-05-19T22:34:40.271Z,78.96
2023-05-19T22:37:07.188Z,79.94
2023-05-19T22:39:33.898Z,80.05
2023-05-19T22:42:00.516Z,80.56
2023-05-19T22:44:27.244Z,80.96
2023-05-19T22:46:56.474Z,81.19
2023-05-19T22:49:22.996Z,81.21
2023-05-19T22:51:49.933Z,81.39
2023-05-19T22:54:18.295Z,81.30
2023-05-19T22:56:46.448Z,81.60
2023-05-19T22:59:17.792Z,81.49
2023-05-19T23:01:48.554Z,81.54
2023-05-19T23:04:15.306Z,81.07
2023-05-19T23:06:47.211Z,81.70
2023-05-19T23:09:21.509Z,81.44
2023-05-19T23:11:48.084Z,81.97
2023-05-19T23:14:14.664Z,81.72
2023-05-19T23:16:43.580Z,81.93
2023-05-19T23:19:10.187Z,82.23
2023-05-19T23:21:36.751Z,82.75
2023-05-19T23:24:03.638Z,82.95
2023-05-19T23:26:30.360Z,83.64
2023-05-19T23:28:56.914Z,83.30
2023-05-19T23:31:25.403Z,83.91
2023-05-19T23:33:51.971Z,83.97
2023-05-19T23:36:19.244Z,83.70
2023-05-19T23:38:47.909Z,83.37
2023-05-19T23:41:14.847Z,84.02
2023-05-19T23:43:41.349Z,84.16
2023-05-19T23:46:09.743Z,84.44
2023-05-19T23:48:36.733Z,84.05
2023-05-19T23:51:03.709Z,84.14
2023-05-19T23:53:30.371Z,84.55
2023-05-19T23:55:58.686Z,83.27
2023-05-19T23:58:25.442Z,83.11
